Time;durP1;ratioP1;P1;durP2;ratioP2;P2;SDS_P1;SDS_P2;PMS_P1;PMS_P2;Temp;Humidity;BMP_temperature;BMP_pressure;BME280_temperature;BME280_humidity;BME280_pressure;Samples;Min_cycle;Max_cycle;Signal;HPM_P1;HPM_P2
2021/04/05 00:02:18;;;;;;;22.15;10.57;;;7.20;69.30;;;;;;5132123;27;20042;-69
2021/04/05 00:04:43;;;;;;;21.65;11.32;;;7.20;69.70;;;;;;5111890;27;20046;-70
2021/04/05 00:07:10;;;;;;;20.52;11.23;;;7.20;69.80;;;;;;5129670;27;20031;-71
2021/04/05 00:09:39;;;;;;;17.27;10.77;;;7.20;69.90;;;;;;5116319;27;20043;-70
2021/04/05 00:12:06;;;;;;;20.63;11.07;;;7.20;69.90;;;;;;5130654;27;20114;-70
2021/04/05 00:14:32;;;;;;;19.35;11.48;;;7.20;70.00;;;;;;5134668;27;20117;-70
2021/04/05 00:16:58;;;;;;;19.17;10.55;;;7.20;69.90;;;;;;5115000;27;20161;-70
2021/04/05 00:19:23;;;;;;;21.48;11.52;;;7.20;69.90;;;;;;5133708;27;20073;-70
2021/04/05 00:21:49;;;;;;;18.13;11.18;;;7.20;69.90;;;;;;5134404;27;20031;-71
2021/04/05 00:24:15;;;;;;;20.23;11.57;;;7.20;69.80;;;;;;5133250;27;20039;-70
2021/04/05 00:26:40;;;;;;;16.30;10.57;;;7.20;70.70;;;;;;5134513;27;20371;-69
2021/04/05 00:29:06;;;;;;;21.55;11.30;;;7.20;70.10;;;;;;5132670;27;20043;-70
2021/04/05 00:31:32;;;;;;;18.95;11.48;;;7.20;71.00;;;;;;5134177;27;20047;-70
2021/04/05 00:33:58;;;;;;;20.02;11.35;;;7.20;70.50;;;;;;5133096;27;20035;-70
2021/04/05 00:36:24;;;;;;;23.90;11.82;;;7.20;70.50;;;;;;5133118;27;20407;-70
2021/04/05 00:38:49;;;;;;;20.08;11.30;;;7.20;70.40;;;;;;5133301;27;20039;-71
2021/04/05 00:41:15;;;;;;;20.58;11.50;;;7.20;70.60;;;;;;5124032;27;20055;-71
2021/04/05 00:43:43;;;;;;;24.17;11.68;;;7.30;70.90;;;;;;5134049;27;20394;-70
2021/04/05 00:46:09;;;;;;;22.92;13.13;;;7.30;71.00;;;;;;5114372;27;20091;-70
2021/04/05 00:48:36;;;;;;;20.15;12.30;;;7.20;71.20;;;;;;5133987;27;20070;-70
2021/04/05 00:51:06;;;;;;;16.48;11.02;;;7.30;71.40;;;;;;5130850;27;20070;-70
2021/04/05 00:53:36;;;;;;;24.52;13.23;;;7.30;71.40;;;;;;5133957;27;20058;-70
2021/04/05 00:56:02;;;;;;;24.10;12.00;;;7.30;71.60;;;;;;5132421;27;20049;-70
2021/04/05 00:58:28;;;;;;;20.73;12.55;;;7.30;71.70;;;;;;5132049;27;20497;-70
2021/04/05 01:01:02;;;;;;;21.52;12.57;;;7.30;71.80;;;;;;5130347;27;20035;-70
2021/04/05 01:03:30;;;;;;;21.35;11.73;;;7.30;72.10;;;;;;5116911;27;20058;-70
2021/04/05 01:06:01;;;;;;;27.40;12.68;;;7.30;72.00;;;;;;5114955;27;20099;-70
2021/04/05 01:08:27;;;;;;;23.85;13.10;;;7.30;71.90;;;;;;5112928;27;20183;-70
2021/04/05 01:10:53;;;;;;;21.40;12.63;;;7.40;72.10;;;;;;5098306;27;20142;-70
2021/04/05 01:13:19;;;;;;;24.70;12.43;;;7.40;72.00;;;;;;5131768;27;20118;-70
2021/04/05 01:15:45;;;;;;;22.52;13.13;;;7.40;72.00;;;;;;5133401;27;20035;-71
2021/04/05 01:18:12;;;;;;;25.90;12.32;;;7.40;72.40;;;;;;5131447;27;20035;-71
2021/04/05 01:20:37;;;;;;;22.33;13.32;;;7.40;72.50;;;;;;5133090;27;20051;-70
2021/04/05 01:23:03;;;;;;;25.60;13.10;;;7.40;72.40;;;;;;5132662;27;20347;-69
2021/04/05 01:25:29;;;;;;;29.23;13.63;;;7.40;72.60;;;;;;5114213;27;20213;-69
2021/04/05 01:27:55;;;;;;;23.33;12.93;;;7.40;72.90;;;;;;5114746;27;20066;-70
2021/04/05 01:30:33;;;;;;;25.95;13.15;;;7.50;72.80;;;;;;5132453;27;20072;-71
2021/04/05 01:33:07;;;;;;;26.90;13.77;;;7.50;72.80;;;;;;5132661;27;20180;-70
2021/04/05 01:35:47;;;;;;;23.33;13.05;;;7.50;73.00;;;;;;5132534;27;20506;-70
2021/04/05 01:38:13;;;;;;;26.40;13.45;;;7.50;72.90;;;;;;5132718;27;20047;-71
2021/04/05 01:40:45;;;;;;;24.52;13.38;;;7.50;72.90;;;;;;5114552;27;20051;-70
2021/04/05 01:43:11;;;;;;;25.75;12.93;;;7.50;72.90;;;;;;5132973;27;20039;-70
2021/04/05 01:45:37;;;;;;;24.77;13.30;;;7.50;73.10;;;;;;5114806;27;20106;-70
2021/04/05 01:48:03;;;;;;;26.75;14.20;;;7.50;73.00;;;;;;5132859;27;20375;-70
2021/04/05 01:50:30;;;;;;;27.60;13.38;;;7.60;73.00;;;;;;5132176;27;20497;-71
2021/04/05 01:52:55;;;;;;;28.02;14.20;;;7.60;73.50;;;;;;5114055;27;20043;-70
2021/04/05 01:55:21;;;;;;;29.30;14.98;;;7.60;73.70;;;;;;5113402;27;20035;-70
2021/04/05 01:57:49;;;;;;;27.27;14.77;;;7.60;73.60;;;;;;5114140;27;20043;-70
2021/04/05 02:00:19;;;;;;;20.67;12.68;;;7.60;73.80;;;;;;5131893;27;20049;-71
2021/04/05 02:02:45;;;;;;;23.42;13.75;;;7.70;73.60;;;;;;5132935;27;20050;-70
2021/04/05 02:05:11;;;;;;;24.67;15.10;;;7.70;73.60;;;;;;5114105;28;20039;-70
2021/04/05 02:07:37;;;;;;;32.70;14.50;;;7.70;73.70;;;;;;5131542;27;20399;-70
2021/04/05 02:10:10;;;;;;;27.50;14.77;;;7.70;74.00;;;;;;5132106;27;20071;-70
2021/04/05 02:12:36;;;;;;;24.80;13.63;;;7.70;74.00;;;;;;5130666;27;20119;-70
2021/04/05 02:15:05;;;;;;;27.23;13.15;;;7.80;74.40;;;;;;5113923;27;20039;-70
2021/04/05 02:17:32;;;;;;;26.42;14.15;;;7.80;74.10;;;;;;5131687;27;20039;-71
2021/04/05 02:19:57;;;;;;;21.63;11.82;;;7.80;74.40;;;;;;5113814;27;20035;-69
2021/04/05 02:22:23;;;;;;;21.98;11.57;;;7.80;74.20;;;;;;5113187;27;20039;-69
2021/04/05 02:24:49;;;;;;;23.58;12.30;;;7.90;74.20;;;;;;5080155;27;20047;-70
2021/04/05 02:27:14;;;;;;;20.65;12.23;;;7.90;74.10;;;;;;5096939;28;20226;-70
2021/04/05 02:29:40;;;;;;;25.27;12.45;;;7.90;74.00;;;;;;5131406;27;20095;-70
2021/04/05 02:32:06;;;;;;;27.65;11.30;;;7.90;74.20;;;;;;5113832;28;20067;-70
2021/04/05 02:34:32;;;;;;;23.27;11.73;;;8.00;74.00;;;;;;5112797;28;20051;-70
2021/04/05 02:36:57;;;;;;;25.13;11.85;;;8.00;74.10;;;;;;5113882;28;20501;-70
2021/04/05 02:39:23;;;;;;;21.50;12.45;;;8.10;74.10;;;;;;5113182;28;20436;-70
2021/04/05 02:41:50;;;;;;;20.77;11.70;;;8.00;74.10;;;;;;5113582;28;20112;-69
2021/04/05 02:44:16;;;;;;;22.40;11.13;;;8.00;73.90;;;;;;5113301;28;20100;-69
2021/04/05 02:46:42;;;;;;;20.23;11.38;;;8.10;74.10;;;;;;5096141;28;20174;-69
2021/04/05 02:49:12;;;;;;;29.70;12.02;;;8.10;73.90;;;;;;5096538;28;20171;-69
2021/04/05 02:51:42;;;;;;;24.40;10.98;;;8.10;73.80;;;;;;5095995;28;20462;-69
2021/04/05 02:54:08;;;;;;;21.92;11.18;;;8.10;73.80;;;;;;5113529;28;20040;-69
2021/04/05 02:56:35;;;;;;;24.27;11.48;;;8.10;73.80;;;;;;5112803;28;20478;-69
2021/04/05 02:59:01;;;;;;;24.52;11.02;;;8.20;73.60;;;;;;5096672;28;20039;-70
2021/04/05 03:01:27;;;;;;;19.42;9.65;;;8.20;73.40;;;;;;5113021;28;20054;-70
2021/04/05 03:03:56;;;;;;;22.58;10.93;;;8.30;73.40;;;;;;5096804;28;20051;-69
2021/04/05 03:06:22;;;;;;;23.17;10.93;;;8.30;73.50;;;;;;5095984;28;20164;-70
2021/04/05 03:08:48;;;;;;;22.60;11.23;;;8.30;73.40;;;;;;5096586;28;20118;-69
2021/04/05 03:11:14;;;;;;;19.70;10.82;;;8.30;73.20;;;;;;5096569;28;20068;-69
2021/04/05 03:13:40;;;;;;;17.45;8.80;;;8.30;73.40;;;;;;5112782;28;20475;-70
2021/04/05 03:16:10;;;;;;;20.63;9.55;;;8.30;73.40;;;;;;5131812;28;20039;-69
2021/04/05 03:18:35;;;;;;;19.70;8.98;;;8.30;73.20;;;;;;5095745;28;20165;-69
2021/04/05 03:21:12;;;;;;;17.77;9.27;;;8.40;73.20;;;;;;5113522;27;20466;-69
2021/04/05 03:23:39;;;;;;;16.58;8.82;;;8.30;73.30;;;;;;5117414;27;20096;-70
2021/04/05 03:26:05;;;;;;;19.63;9.40;;;8.40;73.10;;;;;;5100153;27;20442;-70
2021/04/05 03:28:31;;;;;;;20.30;10.38;;;8.40;73.00;;;;;;5134973;27;20047;-70
2021/04/05 03:31:02;;;;;;;18.23;9.73;;;8.40;73.20;;;;;;5135383;27;20528;-70
2021/04/05 03:33:54;;;;;;;19.47;9.70;;;8.40;73.40;;;;;;5134752;27;20480;-70
2021/04/05 03:36:26;;;;;;;19.33;9.53;;;8.40;73.70;;;;;;5135492;27;20084;-70
2021/04/05 03:38:53;;;;;;;23.77;9.75;;;8.40;73.60;;;;;;5117524;27;20423;-69
2021/04/05 03:41:54;;;;;;;22.20;8.80;;;8.50;73.70;;;;;;5135077;27;20087;-69
2021/04/05 03:44:46;;;;;;;18.85;8.77;;;8.50;74.10;;;;;;5135315;27;20046;-70
2021/04/05 03:47:42;;;;;;;25.00;9.55;;;8.50;74.30;;;;;;5102637;27;20118;-69
2021/04/05 03:50:21;;;;;;;20.88;9.30;;;8.50;74.30;;;;;;5119896;27;20046;-69
2021/04/05 03:53:13;;;;;;;18.90;9.07;;;8.50;74.30;;;;;;5099929;27;20135;-70
2021/04/05 03:55:40;;;;;;;16.80;8.70;;;8.50;74.10;;;;;;5134478;27;20460;-70
2021/04/05 03:58:06;;;;;;;18.42;9.15;;;8.50;74.30;;;;;;5116599;27;20118;-69
2021/04/05 04:00:33;;;;;;;15.82;8.00;;;8.50;74.30;;;;;;5099101;27;20039;-69
2021/04/05 04:03:00;;;;;;;19.05;9.55;;;8.50;74.20;;;;;;5116677;27;20062;-69
2021/04/05 04:10:25;;;;;;;16.58;8.65;;;8.50;74.20;;;;;;5115754;27;20047;-70
2021/04/05 04:12:51;;;;;;;18.95;9.10;;;8.50;74.30;;;;;;5098972;27;20381;-70
2021/04/05 04:15:17;;;;;;;17.38;7.95;;;8.60;74.30;;;;;;5115935;27;20096;-69
2021/04/05 04:17:44;;;;;;;16.02;8.40;;;8.60;74.00;;;;;;5115434;27;20079;-70
2021/04/05 04:20:15;;;;;;;19.55;7.78;;;8.50;74.10;;;;;;5099502;27;20043;-70
2021/04/05 04:22:40;;;;;;;17.48;8.38;;;8.50;73.90;;;;;;5134071;27;20092;-69
2021/04/05 04:25:07;;;;;;;17.92;7.55;;;8.60;73.80;;;;;;5116092;27;20035;-69
2021/04/05 04:27:32;;;;;;;13.75;5.90;;;8.60;74.30;;;;;;5134007;27;20047;-69
2021/04/05 04:29:58;;;;;;;11.60;3.85;;;8.60;74.20;;;;;;5116082;27;20041;-68
2021/04/05 04:32:25;;;;;;;9.77;2.88;;;8.50;74.10;;;;;;5115881;27;20039;-70
2021/04/05 04:34:51;;;;;;;8.45;2.08;;;8.60;74.00;;;;;;5133537;27;20844;-70
2021/04/05 04:37:17;;;;;;;4.65;1.50;;;8.50;73.70;;;;;;5134466;27;20039;-70
2021/04/05 04:39:43;;;;;;;6.13;1.33;;;8.40;73.20;;;;;;5133578;27;20058;-70
2021/04/05 04:42:09;;;;;;;5.22;1.25;;;8.30;72.70;;;;;;5116291;27;20043;-70
2021/04/05 04:44:35;;;;;;;6.88;1.55;;;8.20;72.50;;;;;;5133678;27;20114;-70
2021/04/05 04:47:00;;;;;;;6.07;1.05;;;8.10;72.40;;;;;;5134455;27;20050;-70
2021/04/05 04:49:26;;;;;;;2.95;0.90;;;8.10;72.50;;;;;;5132787;27;20127;-70
2021/04/05 04:51:52;;;;;;;4.63;1.15;;;8.00;72.30;;;;;;5122269;27;20354;-70
2021/04/05 04:54:18;;;;;;;5.72;1.90;;;7.90;72.20;;;;;;5123754;27;20484;-69
2021/04/05 04:56:44;;;;;;;2.88;0.82;;;7.80;72.00;;;;;;5091277;27;20163;-69
2021/04/05 04:59:11;;;;;;;3.72;0.80;;;7.80;72.00;;;;;;5105780;27;20035;-69
2021/04/05 05:01:39;;;;;;;2.20;0.70;;;7.70;72.00;;;;;;5102417;27;20481;-70
2021/04/05 05:04:07;;;;;;;2.72;1.02;;;7.60;72.00;;;;;;5126139;27;20043;-69
2021/04/05 05:06:33;;;;;;;6.90;1.00;;;7.60;72.10;;;;;;5103962;27;20114;-69
2021/04/05 05:08:59;;;;;;;3.63;0.88;;;7.50;72.10;;;;;;5087882;27;20455;-69
2021/04/05 05:11:26;;;;;;;5.22;0.93;;;7.40;72.00;;;;;;5105058;27;20075;-69
2021/04/05 05:13:51;;;;;;;2.30;0.60;;;7.40;71.90;;;;;;5102732;27;20039;-69
2021/04/05 05:16:17;;;;;;;3.03;0.70;;;7.30;71.80;;;;;;5106312;27;20040;-69
2021/04/05 05:18:43;;;;;;;4.10;1.00;;;7.20;71.70;;;;;;5086620;27;20039;-70
2021/04/05 05:21:18;;;;;;;5.25;0.90;;;7.20;71.60;;;;;;5088754;27;20047;-70
2021/04/05 05:23:43;;;;;;;7.65;1.33;;;7.20;71.50;;;;;;5087796;27;20043;-70
2021/04/05 05:26:13;;;;;;;4.10;1.20;;;7.10;71.60;;;;;;5091298;27;20032;-70
2021/04/05 05:28:39;;;;;;;5.65;1.38;;;7.00;71.60;;;;;;5101902;27;20417;-70
2021/04/05 05:31:04;;;;;;;4.60;1.15;;;7.00;71.70;;;;;;5105360;27;20041;-69
2021/04/05 05:33:30;;;;;;;6.13;1.67;;;7.00;71.90;;;;;;5104606;27;20074;-69
2021/04/05 05:35:56;;;;;;;5.80;2.00;;;6.90;71.90;;;;;;5123624;27;20039;-70
2021/04/05 05:38:22;;;;;;;5.45;1.27;;;6.90;72.00;;;;;;5077284;27;20043;-70
2021/04/05 05:40:48;;;;;;;6.18;1.30;;;6.90;72.10;;;;;;5119937;27;20074;-70
2021/04/05 05:43:26;;;;;;;4.43;1.27;;;6.90;72.90;;;;;;5093387;28;20071;-70
2021/04/05 05:45:55;;;;;;;5.00;1.33;;;6.90;72.30;;;;;;5093412;28;20071;-70
2021/04/05 05:48:23;;;;;;;3.85;0.90;;;6.90;72.30;;;;;;5112505;28;20085;-69
2021/04/05 05:50:58;;;;;;;4.53;1.15;;;6.80;72.20;;;;;;5111645;28;20396;-69
2021/04/05 05:53:43;;;;;;;3.95;0.70;;;6.80;72.40;;;;;;5094319;28;20119;-69
2021/04/05 05:56:32;;;;;;;3.47;0.60;;;6.80;72.70;;;;;;5112358;28;20063;-70
2021/04/05 05:59:18;;;;;;;3.63;0.55;;;6.70;72.70;;;;;;5111544;28;20047;-69
2021/04/05 06:02:03;;;;;;;3.03;0.60;;;6.60;72.50;;;;;;5096328;28;20055;-69
2021/04/05 06:04:47;;;;;;;2.05;0.50;;;6.50;72.90;;;;;;5112511;28;20048;-69
2021/04/05 06:07:27;;;;;;;1.02;0.40;;;6.50;72.90;;;;;;5112262;28;20089;-69
2021/04/05 06:10:25;;;;;;;2.33;0.40;;;6.50;73.00;;;;;;5093554;28;20040;-69
2021/04/05 06:12:51;;;;;;;3.42;0.60;;;6.40;73.10;;;;;;5093396;28;20051;-69
2021/04/05 06:15:21;;;;;;;2.22;0.60;;;6.40;73.00;;;;;;5112281;28;20044;-70
2021/04/05 06:18:02;;;;;;;2.03;0.70;;;6.40;73.10;;;;;;5093501;28;20050;-70
2021/04/05 06:20:48;;;;;;;4.60;0.70;;;6.30;73.20;;;;;;5112120;28;20047;-70
2021/04/05 06:23:16;;;;;;;4.68;0.90;;;6.40;73.30;;;;;;5094860;28;20106;-69
2021/04/05 06:25:52;;;;;;;5.25;1.20;;;6.30;73.10;;;;;;5093513;28;20406;-71
2021/04/05 06:28:25;;;;;;;2.42;1.00;;;6.30;73.00;;;;;;5112231;28;20047;-69
2021/04/05 06:31:14;;;;;;;4.05;0.80;;;6.20;72.90;;;;;;5093338;28;20035;-69
2021/04/05 06:33:51;;;;;;;4.53;0.93;;;6.20;72.80;;;;;;5093676;28;20039;-69
2021/04/05 06:36:30;;;;;;;4.97;1.17;;;6.10;72.50;;;;;;5093758;28;20462;-69
2021/04/05 06:39:08;;;;;;;4.78;1.20;;;6.10;72.50;;;;;;5093167;28;20043;-69
2021/04/05 06:41:34;;;;;;;8.77;1.35;;;6.10;72.20;;;;;;5111526;28;20063;-70
2021/04/05 06:44:37;;;;;;;3.63;0.95;;;6.00;72.20;;;;;;5111335;28;20048;-70
2021/04/05 06:47:22;;;;;;;;;;;6.00;72.50;;;;;;5111670;28;20039;-70
2021/04/05 06:50:12;;;;;;;8.27;1.35;;;6.00;72.80;;;;;;5105269;28;19919;-70
2021/04/05 06:53:09;;;;;;;10.00;2.65;;;6.00;72.00;;;;;;5124671;28;20035;-70
2021/04/05 06:55:42;;;;;;;3.97;1.48;;;6.00;71.70;;;;;;5130058;27;20070;-70
2021/04/05 06:58:24;;;;;;;8.38;1.35;;;5.90;71.50;;;;;;5092435;27;20114;-70
2021/04/05 07:01:20;;;;;;;10.05;1.98;;;5.90;71.40;;;;;;5130218;27;20106;-69
2021/04/05 07:04:04;;;;;;;12.70;2.08;;;5.90;71.30;;;;;;5130039;27;20069;-70
2021/04/05 07:07:10;;;;;;;12.70;2.00;;;5.90;71.20;;;;;;5098716;27;20039;-70
2021/04/05 07:09:56;;;;;;;14.07;2.38;;;5.90;70.70;;;;;;5051268;27;20035;-70
2021/04/05 07:12:33;;;;;;;10.50;2.33;;;5.90;70.60;;;;;;5098179;27;20134;-69
2021/04/05 07:15:23;;;;;;;9.52;2.67;;;5.80;70.20;;;;;;5128847;27;20165;-70
2021/04/05 07:18:08;;;;;;;14.52;2.78;;;5.80;69.40;;;;;;5108018;27;20035;-68
2021/04/05 07:21:08;;;;;;;9.80;2.05;;;5.80;69.30;;;;;;5118227;27;20429;-71
2021/04/05 07:24:03;;;;;;;10.05;2.00;;;5.80;68.70;;;;;;5134705;27;20065;-70
2021/04/05 07:26:36;;;;;;;10.60;2.30;;;5.80;68.40;;;;;;5117588;27;20494;-69
2021/04/05 07:29:18;;;;;;;7.22;1.90;;;5.80;68.40;;;;;;5132568;27;20066;-70
2021/04/05 07:31:55;;;;;;;11.40;1.95;;;5.80;67.60;;;;;;5100985;27;20035;-70
2021/04/05 07:34:25;;;;;;;8.10;1.70;;;5.80;68.00;;;;;;5089257;27;20040;-69
2021/04/05 07:36:56;;;;;;;8.90;1.83;;;5.80;67.90;;;;;;5116691;27;20066;-69
2021/04/05 07:39:22;;;;;;;10.40;1.83;;;5.80;67.40;;;;;;5116126;27;20433;-69
2021/04/05 07:42:09;;;;;;;8.15;2.13;;;5.80;67.00;;;;;;5135641;27;20055;-70
2021/04/05 07:44:55;;;;;;;8.60;1.55;;;5.80;66.80;;;;;;5134740;27;20043;-70
2021/04/05 07:47:45;;;;;;;7.63;1.73;;;5.90;66.90;;;;;;5097909;28;20047;-69
2021/04/05 07:50:32;;;;;;;8.05;1.50;;;5.90;66.30;;;;;;5133004;27;20027;-69
2021/04/05 07:53:21;;;;;;;6.28;1.10;;;5.90;66.20;;;;;;5102513;27;20062;-70
2021/04/05 07:55:48;;;;;;;3.22;0.50;;;5.90;65.70;;;;;;5116404;27;20035;-69
2021/04/05 07:58:56;;;;;;;3.67;1.00;;;5.90;65.90;;;;;;5116228;27;20395;-69
2021/04/05 08:01:45;;;;;;;3.92;0.80;;;5.80;65.20;;;;;;5094907;27;20143;-70
2021/04/05 08:04:15;;;;;;;3.33;0.80;;;5.70;65.50;;;;;;5115877;27;20064;-69
2021/04/05 08:06:51;;;;;;;1.63;0.50;;;5.70;65.60;;;;;;5091624;27;20049;-70
2021/04/05 08:09:17;;;;;;;0.98;0.43;;;5.70;65.50;;;;;;5115702;27;20544;-70
2021/04/05 08:12:04;;;;;;;2.63;0.60;;;5.70;65.20;;;;;;5098552;27;20039;-69
2021/04/05 08:14:35;;;;;;;4.38;0.60;;;5.70;65.30;;;;;;5105586;27;20367;-69
2021/04/05 08:17:15;;;;;;;3.85;0.57;;;5.70;65.40;;;;;;5104952;27;20035;-70
2021/04/05 08:19:58;;;;;;;2.63;0.55;;;5.70;65.50;;;;;;5125759;27;20131;-70
2021/04/05 08:22:39;;;;;;;5.15;0.60;;;5.60;66.40;;;;;;5111763;27;20398;-70
2021/04/05 08:25:11;;;;;;;3.17;0.60;;;5.50;66.90;;;;;;5129467;27;20131;-70
2021/04/05 08:27:40;;;;;;;2.67;0.50;;;5.50;67.40;;;;;;5110537;27;20049;-71
2021/04/05 08:30:21;;;;;;;2.95;0.68;;;5.30;67.70;;;;;;5124651;27;20118;-69
2021/04/05 08:33:10;;;;;;;2.45;0.40;;;5.30;68.20;;;;;;5120632;27;20092;-69
2021/04/05 08:35:46;;;;;;;2.03;0.40;;;5.30;68.60;;;;;;5092455;27;20039;-69
2021/04/05 08:38:52;;;;;;;1.98;0.32;;;5.20;68.80;;;;;;5112833;27;20122;-70
2021/04/05 08:41:41;;;;;;;2.97;0.50;;;5.10;68.90;;;;;;5108315;27;20052;-71
2021/04/05 08:44:31;;;;;;;2.72;0.47;;;5.10;68.90;;;;;;5109165;27;20043;-69
2021/04/05 08:46:58;;;;;;;4.40;0.60;;;5.00;69.40;;;;;;5112282;27;20467;-70
2021/04/05 08:49:24;;;;;;;4.10;0.75;;;5.00;69.50;;;;;;5112319;27;20046;-69
2021/04/05 08:51:54;;;;;;;5.85;0.73;;;5.00;69.80;;;;;;5109277;27;20122;-70
2021/04/05 08:54:23;;;;;;;3.53;0.80;;;5.00;69.60;;;;;;5093870;27;20035;-71
2021/04/05 08:56:54;;;;;;;4.57;1.20;;;5.00;69.80;;;;;;5129691;27;20066;-71
2021/04/05 08:59:39;;;;;;;5.95;1.35;;;5.00;69.90;;;;;;5128536;27;20043;-72
2021/04/05 09:02:30;;;;;;;7.28;1.13;;;5.00;70.20;;;;;;5132409;27;20088;-73
2021/04/05 09:04:56;;;;;;;6.03;1.52;;;5.10;70.70;;;;;;5109957;27;20107;-72
2021/04/05 09:07:45;;;;;;;8.05;1.77;;;5.10;70.10;;;;;;5113762;27;20196;-70
2021/04/05 09:10:12;;;;;;;8.82;1.88;;;5.10;69.20;;;;;;5131686;27;20063;-72
2021/04/05 09:12:38;;;;;;;10.52;2.20;;;5.10;69.20;;;;;;5097729;27;20081;-72
2021/04/05 09:15:22;;;;;;;8.93;2.20;;;5.10;68.60;;;;;;5102116;27;20456;-71
2021/04/05 09:18:19;;;;;;;15.07;2.30;;;5.00;68.30;;;;;;5103409;28;20047;-71
2021/04/05 09:21:06;;;;;;;10.75;2.03;;;5.00;68.60;;;;;;5112933;27;20088;-74
2021/04/05 09:24:06;;;;;;;11.18;2.17;;;5.00;68.50;;;;;;5118637;27;20044;-72
2021/04/05 09:26:49;;;;;;;11.55;1.88;;;5.00;68.70;;;;;;5119530;27;20050;-72
2021/04/05 09:29:39;;;;;;;9.25;2.45;;;5.00;68.00;;;;;;5126380;27;20039;-74
2021/04/05 09:32:14;;;;;;;9.88;1.90;;;5.20;69.90;;;;;;5111700;27;20480;-74
2021/04/05 09:35:29;;;;;;;10.75;2.00;;;5.30;67.60;;;;;;5129312;27;20130;-79
2021/04/05 09:38:20;;;;;;;12.75;2.50;;;5.20;64.50;;;;;;5029626;28;20511;-72
2021/04/05 09:41:06;;;;;;;12.55;2.67;;;5.30;65.50;;;;;;5030923;28;20413;-72
2021/04/05 09:43:46;;;;;;;15.23;2.10;;;5.30;65.00;;;;;;5081659;27;20051;-73
2021/04/05 09:46:27;;;;;;;8.68;2.65;;;5.30;64.10;;;;;;5101981;28;20484;-72
2021/04/05 09:49:21;;;;;;;10.93;2.58;;;5.40;63.70;;;;;;5124741;27;20070;-71
2021/04/05 09:51:55;;;;;;;10.93;2.42;;;5.40;62.90;;;;;;5109261;27;20039;-70
2021/04/05 09:54:46;;;;;;;9.95;1.98;;;5.40;63.50;;;;;;5106749;27;20039;-72
2021/04/05 09:57:32;;;;;;;9.75;1.98;;;5.50;63.00;;;;;;5099517;27;20040;-72
2021/04/05 09:59:59;;;;;;;11.07;2.35;;;5.60;63.00;;;;;;5109313;27;20050;-73
2021/04/05 10:02:34;;;;;;;6.63;1.80;;;5.70;62.40;;;;;;5091465;27;20269;-72
2021/04/05 10:05:00;;;;;;;7.05;1.60;;;5.70;62.20;;;;;;5093481;27;20088;-73
2021/04/05 10:07:26;;;;;;;6.20;1.20;;;5.70;60.90;;;;;;5101199;28;20444;-70
2021/04/05 10:09:52;;;;;;;4.75;1.60;;;5.80;60.00;;;;;;5106747;28;20122;-72
2021/04/05 10:12:18;;;;;;;3.70;1.15;;;5.70;58.80;;;;;;5103875;27;20039;-74
2021/04/05 10:14:44;;;;;;;5.88;0.90;;;5.70;58.10;;;;;;5111514;27;20035;-73
2021/04/05 10:17:10;;;;;;;5.30;1.52;;;5.70;57.30;;;;;;5111155;27;20518;-72
2021/04/05 10:19:36;;;;;;;5.32;1.25;;;5.60;57.30;;;;;;5109787;27;20047;-73
2021/04/05 10:22:06;;;;;;;6.05;1.35;;;5.50;57.20;;;;;;5109455;27;20043;-71
2021/04/05 10:24:33;;;;;;;7.00;1.35;;;5.60;58.00;;;;;;5094591;27;20137;-73
2021/04/05 10:27:00;;;;;;;5.80;1.75;;;5.60;57.50;;;;;;5090894;28;20043;-71
2021/04/05 10:29:29;;;;;;;6.22;1.27;;;5.70;57.30;;;;;;5092689;27;20092;-73
2021/04/05 10:31:56;;;;;;;7.65;1.20;;;5.80;57.40;;;;;;5106430;27;20047;-73
2021/04/05 10:34:23;;;;;;;5.97;2.05;;;6.00;57.00;;;;;;5091057;28;20119;-72
2021/04/05 10:36:51;;;;;;;8.82;1.95;;;6.20;57.50;;;;;;5106966;28;20475;-72
2021/04/05 10:39:16;;;;;;;6.85;1.20;;;6.50;57.30;;;;;;5122652;28;20038;-73
2021/04/05 10:41:48;;;;;;;2.88;1.42;;;6.70;57.10;;;;;;5129053;28;20059;-73
2021/04/05 10:44:14;;;;;;;7.80;1.63;;;6.80;56.00;;;;;;5105941;28;20095;-73
2021/04/05 10:46:42;;;;;;;4.25;1.23;;;7.10;56.60;;;;;;5094863;28;20043;-72
2021/04/05 10:49:09;;;;;;;3.55;0.75;;;7.10;55.30;;;;;;5093310;28;20185;-73
2021/04/05 10:52:08;;;;;;;6.38;1.17;;;7.10;55.10;;;;;;5127216;28;20130;-72
2021/04/05 10:54:46;;;;;;;5.45;0.98;;;7.30;54.30;;;;;;5088278;28;20047;-72
2021/04/05 10:57:13;;;;;;;5.85;1.10;;;7.40;53.80;;;;;;5085368;28;20039;-72
2021/04/05 10:59:43;;;;;;;4.07;0.80;;;7.50;53.60;;;;;;5095655;28;20054;-71
2021/04/05 11:02:18;;;;;;;4.85;0.60;;;7.60;53.00;;;;;;5088736;28;20043;-73
2021/04/05 11:04:51;;;;;;;2.55;0.60;;;7.40;50.10;;;;;;5109873;28;20092;-73
2021/04/05 11:07:16;;;;;;;2.63;0.70;;;7.40;50.60;;;;;;5091980;28;20120;-72
2021/04/05 11:09:42;;;;;;;2.63;0.50;;;7.50;50.50;;;;;;5095590;28;20051;-71
2021/04/05 11:12:09;;;;;;;2.25;0.47;;;7.70;50.90;;;;;;5094862;28;20475;-72
2021/04/05 11:14:35;;;;;;;3.60;0.63;;;7.80;49.60;;;;;;5109991;28;20062;-72
2021/04/05 11:17:01;;;;;;;6.40;1.50;;;7.90;49.40;;;;;;5106378;28;20488;-71
2021/04/05 11:19:40;;;;;;;1.98;0.65;;;8.00;49.50;;;;;;5109054;28;20050;-72
2021/04/05 11:22:06;;;;;;;2.97;0.63;;;8.00;47.60;;;;;;5071308;28;20051;-71
2021/04/05 11:24:36;;;;;;;4.75;0.77;;;8.00;48.20;;;;;;5109623;28;20044;-72
2021/04/05 11:27:06;;;;;;;4.75;0.80;;;7.90;48.30;;;;;;5093445;28;20036;-71
2021/04/05 11:29:32;;;;;;;4.03;1.15;;;7.80;49.20;;;;;;5125784;28;20070;-71
2021/04/05 11:31:58;;;;;;;5.20;1.20;;;7.60;49.20;;;;;;5068237;28;20098;-71
2021/04/05 11:34:26;;;;;;;5.93;1.05;;;7.30;49.40;;;;;;5108731;28;20071;-71
2021/04/05 11:36:59;;;;;;;3.35;0.80;;;7.30;50.30;;;;;;5110137;28;20043;-71
2021/04/05 11:39:33;;;;;;;5.20;0.90;;;7.30;51.10;;;;;;5124293;28;20039;-71
2021/04/05 11:42:01;;;;;;;2.15;0.60;;;7.60;51.80;;;;;;5093120;27;20131;-70
2021/04/05 11:44:38;;;;;;;5.90;0.70;;;7.90;51.90;;;;;;5112172;27;20130;-73
2021/04/05 11:47:04;;;;;;;3.65;0.50;;;8.30;51.90;;;;;;5097311;27;20049;-71
2021/04/05 11:49:31;;;;;;;3.10;0.38;;;8.70;51.50;;;;;;5093329;27;20043;-72
2021/04/05 11:52:45;;;;;;;2.13;0.60;;;9.00;51.00;;;;;;5112907;27;20194;-72
2021/04/05 11:55:13;;;;;;;3.72;0.50;;;9.20;50.20;;;;;;5016633;28;20116;-71
2021/04/05 11:57:42;;;;;;;2.22;0.70;;;9.50;50.20;;;;;;5003289;28;20042;-72
2021/04/05 12:00:10;;;;;;;3.95;1.05;;;9.60;49.60;;;;;;5060157;27;20055;-72
2021/04/05 12:02:47;;;;;;;4.78;1.13;;;9.60;49.40;;;;;;5111195;27;20125;-73
2021/04/05 12:05:23;;;;;;;4.32;0.90;;;9.50;48.40;;;;;;5090272;27;20047;-72
2021/04/05 12:08:10;;;;;;;3.35;1.17;;;9.10;47.20;;;;;;5128886;27;20030;-73
2021/04/05 12:10:36;;;;;;;3.67;0.80;;;8.80;47.60;;;;;;5116041;27;20065;-71
2021/04/05 12:13:11;;;;;;;4.85;0.77;;;8.80;48.50;;;;;;5095218;27;20300;-72
2021/04/05 12:15:37;;;;;;;3.20;0.70;;;9.00;48.10;;;;;;5113001;27;20046;-70
2021/04/05 12:18:03;;;;;;;5.50;1.38;;;9.10;47.40;;;;;;5130788;27;20411;-72
2021/04/05 12:20:30;;;;;;;5.25;1.10;;;9.10;46.80;;;;;;5100309;28;20043;-73
2021/04/05 12:22:59;;;;;;;7.63;1.60;;;9.30;46.50;;;;;;5096561;27;20035;-73
2021/04/05 12:25:29;;;;;;;6.15;0.90;;;9.40;46.10;;;;;;5111629;27;20455;-74
2021/04/05 12:28:00;;;;;;;4.00;0.90;;;9.70;46.00;;;;;;5099794;27;20039;-72
2021/04/05 12:30:26;;;;;;;5.25;0.98;;;9.80;45.60;;;;;;5097345;27;20031;-71
2021/04/05 12:32:53;;;;;;;4.85;0.90;;;10.10;45.60;;;;;;5095114;27;20115;-72
2021/04/05 12:35:19;;;;;;;4.03;0.90;;;10.30;45.40;;;;;;5110441;27;20479;-71
2021/04/05 12:37:45;;;;;;;5.45;1.20;;;10.40;44.30;;;;;;5114472;27;20059;-71
2021/04/05 12:40:11;;;;;;;6.82;1.20;;;10.40;43.60;;;;;;5093259;28;20458;-72
2021/04/05 12:42:38;;;;;;;5.13;1.27;;;10.30;43.00;;;;;;5074243;27;20059;-70
2021/04/05 12:45:07;;;;;;;5.60;1.80;;;10.30;42.20;;;;;;5096453;27;20040;-71
2021/04/05 12:47:37;;;;;;;7.60;1.35;;;10.40;41.90;;;;;;5111674;27;20039;-73
2021/04/05 12:50:11;;;;;;;5.60;0.90;;;10.40;41.70;;;;;;5105077;27;20044;-72
2021/04/05 12:52:39;;;;;;;3.08;0.70;;;10.30;42.20;;;;;;5112347;27;20106;-72
2021/04/05 12:55:09;;;;;;;6.25;0.80;;;9.70;43.80;;;;;;5112259;27;20162;-72
2021/04/05 12:57:35;;;;;;;4.00;0.60;;;9.20;45.20;;;;;;5071738;27;20046;-73
2021/04/05 13:00:03;;;;;;;3.35;0.88;;;8.80;47.10;;;;;;5113103;27;20469;-71
2021/04/05 13:02:32;;;;;;;2.00;0.52;;;8.30;48.60;;;;;;5123653;27;20070;-73
2021/04/05 13:04:59;;;;;;;4.47;0.60;;;8.00;49.80;;;;;;5111293;27;20046;-71
2021/04/05 13:07:44;;;;;;;2.92;0.70;;;7.80;50.90;;;;;;5110414;27;20054;-72
2021/04/05 13:10:24;;;;;;;3.80;0.75;;;7.60;51.60;;;;;;5113318;27;20114;-72
2021/04/05 13:12:53;;;;;;;3.20;0.60;;;7.60;52.60;;;;;;5108019;27;20112;-71
2021/04/05 13:15:21;;;;;;;2.42;0.50;;;7.80;53.30;;;;;;5111286;27;20113;-72
2021/04/05 13:17:49;;;;;;;4.78;0.70;;;8.00;53.60;;;;;;5094884;27;20077;-72
2021/04/05 13:20:18;;;;;;;4.40;0.93;;;8.30;53.80;;;;;;5096682;27;20038;-71
2021/04/05 13:22:58;;;;;;;2.92;0.52;;;8.50;53.60;;;;;;5096193;27;20035;-71
2021/04/05 13:25:30;;;;;;;3.00;1.17;;;8.70;53.30;;;;;;5095498;27;20043;-72